sensor_id;sensor_type;location;lat;lon;timestamp;P1;P2;P0
76679;PMS5003;65597;51.520;-0.224;2023-04-24T00:01:02;53;47;
76679;PMS5003;65597;51.520;-0.224;2023-04-24T00:03:27;44;42;
76679;PMS5003;65597;51.520;-0.224;2023-04-24T00:05:52;44;40;
76679;PMS5003;65597;51.520;-0.224;2023-04-24T00:08:18;46;44;
76679;PMS5003;65597;51.520;-0.224;2023-04-24T00:10:45;45;39;
76679;PMS5003;65597;51.520;-0.224;2023-04-24T00:13:09;49;44;
76679;PMS5003;65597;51.520;-0.224;2023-04-24T00:15:34;44;41;
76679;PMS5003;65597;51.520;-0.224;2023-04-24T00:18:00;46;42;
76679;PMS5003;65597;51.520;-0.224;2023-04-24T00:20:25;44;41;
76679;PMS5003;65597;51.520;-0.224;2023-04-24T00:22:51;44;44;
76679;PMS5003;65597;51.520;-0.224;2023-04-24T00:25:16;46;43;
76679;PMS5003;65597;51.520;-0.224;2023-04-24T00:27:42;49;46;
76679;PMS5003;65597;51.520;-0.224;2023-04-24T00:30:08;48;47;
76679;PMS5003;65597;51.520;-0.224;2023-04-24T00:32:33;48;44;
76679;PMS5003;65597;51.520;-0.224;2023-04-24T00:34:59;50;46;
76679;PMS5003;65597;51.520;-0.224;2023-04-24T00:37:24;46;43;
76679;PMS5003;65597;51.520;-0.224;2023-04-24T00:39:50;46;41;
76679;PMS5003;65597;51.520;-0.224;2023-04-24T00:42:15;39;37;
76679;PMS5003;65597;51.520;-0.224;2023-04-24T00:44:40;42;41;
76679;PMS5003;65597;51.520;-0.224;2023-04-24T00:47:07;42;40;
76679;PMS5003;65597;51.520;-0.224;2023-04-24T00:49:31;44;39;
76679;PMS5003;65597;51.520;-0.224;2023-04-24T00:51:57;51;47;
76679;PMS5003;65597;51.520;-0.224;2023-04-24T00:54:22;48;43;
76679;PMS5003;65597;51.520;-0.224;2023-04-24T00:56:48;52;44;
76679;PMS5003;65597;51.520;-0.224;2023-04-24T00:59:14;45;39;
76679;PMS5003;65597;51.520;-0.224;2023-04-24T01:01:39;51;47;
76679;PMS5003;65597;51.520;-0.224;2023-04-24T01:04:04;44;37;
76679;PMS5003;65597;51.520;-0.224;2023-04-24T01:06:29;50;47;
76679;PMS5003;65597;51.520;-0.224;2023-04-24T01:08:55;47;44;
76679;PMS5003;65597;51.520;-0.224;2023-04-24T01:11:22;41;39;
76679;PMS5003;65597;51.520;-0.224;2023-04-24T01:13:46;48;45;
76679;PMS5003;65597;51.520;-0.224;2023-04-24T01:16:11;49;44;
76679;PMS5003;65597;51.520;-0.224;2023-04-24T01:18:37;43;38;
76679;PMS5003;65597;51.520;-0.224;2023-04-24T01:21:03;43;38;
76679;PMS5003;65597;51.520;-0.224;2023-04-24T01:23:27;43;42;
76679;PMS5003;65597;51.520;-0.224;2023-04-24T01:25:53;41;39;
76679;PMS5003;65597;51.520;-0.224;2023-04-24T01:28:19;41;40;
76679;PMS5003;65597;51.520;-0.224;2023-04-24T01:30:44;45;41;
76679;PMS5003;65597;51.520;-0.224;2023-04-24T01:33:10;40;38;
76679;PMS5003;65597;51.520;-0.224;2023-04-24T01:35:36;42;40;
76679;PMS5003;65597;51.520;-0.224;2023-04-24T01:38:00;43;38;
76679;PMS5003;65597;51.520;-0.224;2023-04-24T01:40:26;43;41;
76679;PMS5003;65597;51.520;-0.224;2023-04-24T01:42:51;37;34;
76679;PMS5003;65597;51.520;-0.224;2023-04-24T01:45:16;44;40;
76679;PMS5003;65597;51.520;-0.224;2023-04-24T01:47:42;41;40;
76679;PMS5003;65597;51.520;-0.224;2023-04-24T01:50:08;42;38;
76679;PMS5003;65597;51.520;-0.224;2023-04-24T01:52:33;43;40;
76679;PMS5003;65597;51.520;-0.224;2023-04-24T01:54:59;42;38;
76679;PMS5003;65597;51.520;-0.224;2023-04-24T01:57:24;47;44;
76679;PMS5003;65597;51.520;-0.224;2023-04-24T01:59:49;45;40;
76679;PMS5003;65597;51.520;-0.224;2023-04-24T02:02:15;40;39;
76679;PMS5003;65597;51.520;-0.224;2023-04-24T02:04:40;42;41;
76679;PMS5003;65597;51.520;-0.224;2023-04-24T02:07:06;39;38;
76679;PMS5003;65597;51.520;-0.224;2023-04-24T02:09:31;42;40;
76679;PMS5003;65597;51.520;-0.224;2023-04-24T02:11:59;39;35;
76679;PMS5003;65597;51.520;-0.224;2023-04-24T02:14:22;42;38;
76679;PMS5003;65597;51.520;-0.224;2023-04-24T02:16:47;37;33;
76679;PMS5003;65597;51.520;-0.224;2023-04-24T02:19:12;44;37;
76679;PMS5003;65597;51.520;-0.224;2023-04-24T02:21:38;42;38;
76679;PMS5003;65597;51.520;-0.224;2023-04-24T02:24:03;38;34;
76679;PMS5003;65597;51.520;-0.224;2023-04-24T02:26:29;34;34;
76679;PMS5003;65597;51.520;-0.224;2023-04-24T02:28:55;43;39;
76679;PMS5003;65597;51.520;-0.224;2023-04-24T02:31:20;35;32;
76679;PMS5003;65597;51.520;-0.224;2023-04-24T02:33:45;37;34;
76679;PMS5003;65597;51.520;-0.224;2023-04-24T02:36:10;37;37;
76679;PMS5003;65597;51.520;-0.224;2023-04-24T02:38:36;43;40;
76679;PMS5003;65597;51.520;-0.224;2023-04-24T02:41:01;34;33;
76679;PMS5003;65597;51.520;-0.224;2023-04-24T02:43:26;37;36;
76679;PMS5003;65597;51.520;-0.224;2023-04-24T02:45:52;37;36;
76679;PMS5003;65597;51.520;-0.224;2023-04-24T02:48:18;37;34;
76679;PMS5003;65597;51.520;-0.224;2023-04-24T02:50:44;37;34;
76679;PMS5003;65597;51.520;-0.224;2023-04-24T02:53:09;43;40;
76679;PMS5003;65597;51.520;-0.224;2023-04-24T02:55:34;37;34;
76679;PMS5003;65597;51.520;-0.224;2023-04-24T02:57:59;39;31;
76679;PMS5003;65597;51.520;-0.224;2023-04-24T03:00:28;42;35;
76679;PMS5003;65597;51.520;-0.224;2023-04-24T03:02:51;38;36;
76679;PMS5003;65597;51.520;-0.224;2023-04-24T03:05:16;38;36;
76679;PMS5003;65597;51.520;-0.224;2023-04-24T03:07:41;42;36;
76679;PMS5003;65597;51.520;-0.224;2023-04-24T03:10:08;39;37;
76679;PMS5003;65597;51.520;-0.224;2023-04-24T03:12:34;36;33;
76679;PMS5003;65597;51.520;-0.224;2023-04-24T03:14:58;47;40;
76679;PMS5003;65597;51.520;-0.224;2023-04-24T03:17:24;35;34;
76679;PMS5003;65597;51.520;-0.224;2023-04-24T03:19:49;38;36;
76679;PMS5003;65597;51.520;-0.224;2023-04-24T03:22:14;39;35;
76679;PMS5003;65597;51.520;-0.224;2023-04-24T03:24:40;36;35;
76679;PMS5003;65597;51.520;-0.224;2023-04-24T03:27:05;43;38;
76679;PMS5003;65597;51.520;-0.224;2023-04-24T03:29:30;43;36;
76679;PMS5003;65597;51.520;-0.224;2023-04-24T03:31:56;42;36;
76679;PMS5003;65597;51.520;-0.224;2023-04-24T03:34:21;41;36;
76679;PMS5003;65597;51.520;-0.224;2023-04-24T03:36:47;31;30;
76679;PMS5003;65597;51.520;-0.224;2023-04-24T03:39:13;42;36;
76679;PMS5003;65597;51.520;-0.224;2023-04-24T03:41:38;40;34;
76679;PMS5003;65597;51.520;-0.224;2023-04-24T03:44:03;39;37;
76679;PMS5003;65597;51.520;-0.224;2023-04-24T03:46:28;36;33;
76679;PMS5003;65597;51.520;-0.224;2023-04-24T03:48:55;37;35;
76679;PMS5003;65597;51.520;-0.224;2023-04-24T03:51:19;35;33;
76679;PMS5003;65597;51.520;-0.224;2023-04-24T03:53:44;42;37;
76679;PMS5003;65597;51.520;-0.224;2023-04-24T03:56:10;42;38;
76679;PMS5003;65597;51.520;-0.224;2023-04-24T03:58:35;37;34;
76679;PMS5003;65597;51.520;-0.224;2023-04-24T04:01:07;33;30;
76679;PMS5003;65597;51.520;-0.224;2023-04-24T04:03:26;37;35;
76679;PMS5003;65597;51.520;-0.224;2023-04-24T04:05:51;46;37;
76679;PMS5003;65597;51.520;-0.224;2023-04-24T04:08:17;35;31;
76679;PMS5003;65597;51.520;-0.224;2023-04-24T04:10:42;37;35;
76679;PMS5003;65597;51.520;-0.224;2023-04-24T04:13:09;36;34;
76679;PMS5003;65597;51.520;-0.224;2023-04-24T04:15:33;41;35;
76679;PMS5003;65597;51.520;-0.224;2023-04-24T04:17:58;38;34;
76679;PMS5003;65597;51.520;-0.224;2023-04-24T04:20:24;46;37;
76679;PMS5003;65597;51.520;-0.224;2023-04-24T04:22:49;33;31;
76679;PMS5003;65597;51.520;-0.224;2023-04-24T04:25:16;36;33;
76679;PMS5003;65597;51.520;-0.224;2023-04-24T04:27:40;38;32;
76679;PMS5003;65597;51.520;-0.224;2023-04-24T04:30:06;35;33;
76679;PMS5003;65597;51.520;-0.224;2023-04-24T04:32:31;39;34;
76679;PMS5003;65597;51.520;-0.224;2023-04-24T04:34:56;35;33;
76679;PMS5003;65597;51.520;-0.224;2023-04-24T04:37:22;35;33;
76679;PMS5003;65597;51.520;-0.224;2023-04-24T04:39:47;36;35;
76679;PMS5003;65597;51.520;-0.224;2023-04-24T04:42:12;35;33;
76679;PMS5003;65597;51.520;-0.224;2023-04-24T04:44:38;34;32;
76679;PMS5003;65597;51.520;-0.224;2023-04-24T04:47:04;42;37;
76679;PMS5003;65597;51.520;-0.224;2023-04-24T04:49:29;30;29;
76679;PMS5003;65597;51.520;-0.224;2023-04-24T04:51:54;34;33;
76679;PMS5003;65597;51.520;-0.224;2023-04-24T04:54:19;37;33;
76679;PMS5003;65597;51.520;-0.224;2023-04-24T04:56:44;39;34;
76679;PMS5003;65597;51.520;-0.224;2023-04-24T04:59:10;31;30;
76679;PMS5003;65597;51.520;-0.224;2023-04-24T05:01:37;37;37;
76679;PMS5003;65597;51.520;-0.224;2023-04-24T05:04:01;37;34;
76679;PMS5003;65597;51.520;-0.224;2023-04-24T05:06:27;36;32;
76679;PMS5003;65597;51.520;-0.224;2023-04-24T05:08:52;37;37;
76679;PMS5003;65597;51.520;-0.224;2023-04-24T05:11:17;30;30;
76679;PMS5003;65597;51.520;-0.224;2023-04-24T05:13:45;37;34;
76679;PMS5003;65597;51.520;-0.224;2023-04-24T05:16:08;35;33;
76679;PMS5003;65597;51.520;-0.224;2023-04-24T05:18:34;32;31;
76679;PMS5003;65597;51.520;-0.224;2023-04-24T05:20:59;37;33;
76679;PMS5003;65597;51.520;-0.224;2023-04-24T05:23:24;36;32;
76679;PMS5003;65597;51.520;-0.224;2023-04-24T05:25:49;30;28;
76679;PMS5003;65597;51.520;-0.224;2023-04-24T05:28:14;34;33;
76679;PMS5003;65597;51.520;-0.224;2023-04-24T05:30:40;33;31;
76679;PMS5003;65597;51.520;-0.224;2023-04-24T05:33:05;32;31;
76679;PMS5003;65597;51.520;-0.224;2023-04-24T05:35:30;38;33;
76679;PMS5003;65597;51.520;-0.224;2023-04-24T05:37:57;35;33;
76679;PMS5003;65597;51.520;-0.224;2023-04-24T05:40:22;34;28;
76679;PMS5003;65597;51.520;-0.224;2023-04-24T05:42:47;32;28;
76679;PMS5003;65597;51.520;-0.224;2023-04-24T05:45:13;33;29;
76679;PMS5003;65597;51.520;-0.224;2023-04-24T05:47:38;30;26;
76679;PMS5003;65597;51.520;-0.224;2023-04-24T05:50:05;32;27;
76679;PMS5003;65597;51.520;-0.224;2023-04-24T05:52:29;27;22;
76679;PMS5003;65597;51.520;-0.224;2023-04-24T05:54:54;19;17;
76679;PMS5003;65597;51.520;-0.224;2023-04-24T05:57:19;18;17;
76679;PMS5003;65597;51.520;-0.224;2023-04-24T05:59:45;15;14;
76679;PMS5003;65597;51.520;-0.224;2023-04-24T06:02:11;13;12;
76679;PMS5003;65597;51.520;-0.224;2023-04-24T06:04:35;13;12;
76679;PMS5003;65597;51.520;-0.224;2023-04-24T06:07:01;16;15;
76679;PMS5003;65597;51.520;-0.224;2023-04-24T06:09:26;17;15;
76679;PMS5003;65597;51.520;-0.224;2023-04-24T06:11:52;17;15;
76679;PMS5003;65597;51.520;-0.224;2023-04-24T06:14:20;15;14;
76679;PMS5003;65597;51.520;-0.224;2023-04-24T06:16:42;16;14;
76679;PMS5003;65597;51.520;-0.224;2023-04-24T06:19:08;18;15;
76679;PMS5003;65597;51.520;-0.224;2023-04-24T06:21:34;12;12;
76679;PMS5003;65597;51.520;-0.224;2023-04-24T06:23:59;13;10;
76679;PMS5003;65597;51.520;-0.224;2023-04-24T06:26:25;14;12;
76679;PMS5003;65597;51.520;-0.224;2023-04-24T06:28:54;11;10;
76679;PMS5003;65597;51.520;-0.224;2023-04-24T06:31:15;14;11;
76679;PMS5003;65597;51.520;-0.224;2023-04-24T06:33:45;12;11;
76679;PMS5003;65597;51.520;-0.224;2023-04-24T06:36:06;11;10;
76679;PMS5003;65597;51.520;-0.224;2023-04-24T06:38:33;8;8;
76679;PMS5003;65597;51.520;-0.224;2023-04-24T06:40:57;9;9;
76679;PMS5003;65597;51.520;-0.224;2023-04-24T06:43:22;8;8;
76679;PMS5003;65597;51.520;-0.224;2023-04-24T06:45:47;10;9;
76679;PMS5003;65597;51.520;-0.224;2023-04-24T06:48:13;10;9;
76679;PMS5003;65597;51.520;-0.224;2023-04-24T06:50:39;12;11;
76679;PMS5003;65597;51.520;-0.224;2023-04-24T06:53:09;11;9;
76679;PMS5003;65597;51.520;-0.224;2023-04-24T06:55:29;10;7;
76679;PMS5003;65597;51.520;-0.224;2023-04-24T06:57:55;7;6;
76679;PMS5003;65597;51.520;-0.224;2023-04-24T07:00:20;8;6;
76679;PMS5003;65597;51.520;-0.224;2023-04-24T07:02:47;7;6;
76679;PMS5003;65597;51.520;-0.224;2023-04-24T07:05:11;7;7;
76679;PMS5003;65597;51.520;-0.224;2023-04-24T07:07:37;7;6;
76679;PMS5003;65597;51.520;-0.224;2023-04-24T07:10:02;9;7;
76679;PMS5003;65597;51.520;-0.224;2023-04-24T07:12:27;7;7;
76679;PMS5003;65597;51.520;-0.224;2023-04-24T07:14:53;5;5;
76679;PMS5003;65597;51.520;-0.224;2023-04-24T07:17:18;5;5;
76679;PMS5003;65597;51.520;-0.224;2023-04-24T07:19:44;7;6;
76679;PMS5003;65597;51.520;-0.224;2023-04-24T07:22:09;8;6;
76679;PMS5003;65597;51.520;-0.224;2023-04-24T07:24:36;9;8;
76679;PMS5003;65597;51.520;-0.224;2023-04-24T07:27:00;12;9;
76679;PMS5003;65597;51.520;-0.224;2023-04-24T07:29:26;10;7;
76679;PMS5003;65597;51.520;-0.224;2023-04-24T07:31:51;6;6;
76679;PMS5003;65597;51.520;-0.224;2023-04-24T07:34:16;5;4;
76679;PMS5003;65597;51.520;-0.224;2023-04-24T07:36:42;8;8;
76679;PMS5003;65597;51.520;-0.224;2023-04-24T07:39:08;7;7;
76679;PMS5003;65597;51.520;-0.224;2023-04-24T07:41:33;6;6;
76679;PMS5003;65597;51.520;-0.224;2023-04-24T07:43:58;7;6;
76679;PMS5003;65597;51.520;-0.224;2023-04-24T07:46:24;6;6;
76679;PMS5003;65597;51.520;-0.224;2023-04-24T07:48:50;12;9;
76679;PMS5003;65597;51.520;-0.224;2023-04-24T07:51:16;10;9;
76679;PMS5003;65597;51.520;-0.224;2023-04-24T07:53:41;10;9;
76679;PMS5003;65597;51.520;-0.224;2023-04-24T07:56:06;10;9;
76679;PMS5003;65597;51.520;-0.224;2023-04-24T07:58:31;7;6;
76679;PMS5003;65597;51.520;-0.224;2023-04-24T08:00:57;10;8;
76679;PMS5003;65597;51.520;-0.224;2023-04-24T08:03:23;8;7;
76679;PMS5003;65597;51.520;-0.224;2023-04-24T08:05:48;8;8;
76679;PMS5003;65597;51.520;-0.224;2023-04-24T08:08:19;7;6;
76679;PMS5003;65597;51.520;-0.224;2023-04-24T08:10:39;9;8;
76679;PMS5003;65597;51.520;-0.224;2023-04-24T08:13:03;8;8;
76679;PMS5003;65597;51.520;-0.224;2023-04-24T08:15:32;10;8;
76679;PMS5003;65597;51.520;-0.224;2023-04-24T08:17:54;7;7;
76679;PMS5003;65597;51.520;-0.224;2023-04-24T08:20:20;5;4;
76679;PMS5003;65597;51.520;-0.224;2023-04-24T08:22:46;9;9;
76679;PMS5003;65597;51.520;-0.224;2023-04-24T08:25:11;7;7;
76679;PMS5003;65597;51.520;-0.224;2023-04-24T08:27:36;9;7;
76679;PMS5003;65597;51.520;-0.224;2023-04-24T08:30:02;8;7;
76679;PMS5003;65597;51.520;-0.224;2023-04-24T08:32:27;7;7;
76679;PMS5003;65597;51.520;-0.224;2023-04-24T08:34:52;10;8;
76679;PMS5003;65597;51.520;-0.224;2023-04-24T08:37:17;9;8;
76679;PMS5003;65597;51.520;-0.224;2023-04-24T08:39:43;8;8;
76679;PMS5003;65597;51.520;-0.224;2023-04-24T08:42:09;9;8;
76679;PMS5003;65597;51.520;-0.224;2023-04-24T08:44:34;7;6;
76679;PMS5003;65597;51.520;-0.224;2023-04-24T08:46:59;8;8;
76679;PMS5003;65597;51.520;-0.224;2023-04-24T08:49:30;7;6;
76679;PMS5003;65597;51.520;-0.224;2023-04-24T08:51:50;10;9;
76679;PMS5003;65597;51.520;-0.224;2023-04-24T08:54:16;11;8;
76679;PMS5003;65597;51.520;-0.224;2023-04-24T08:56:41;6;6;
76679;PMS5003;65597;51.520;-0.224;2023-04-24T08:59:06;8;8;
76679;PMS5003;65597;51.520;-0.224;2023-04-24T09:01:32;7;7;
76679;PMS5003;65597;51.520;-0.224;2023-04-24T09:03:57;6;6;
76679;PMS5003;65597;51.520;-0.224;2023-04-24T09:06:22;8;8;
76679;PMS5003;65597;51.520;-0.224;2023-04-24T09:08:48;9;8;
76679;PMS5003;65597;51.520;-0.224;2023-04-24T09:11:13;9;8;
76679;PMS5003;65597;51.520;-0.224;2023-04-24T09:13:38;10;9;
76679;PMS5003;65597;51.520;-0.224;2023-04-24T09:16:04;11;9;
76679;PMS5003;65597;51.520;-0.224;2023-04-24T09:18:29;10;9;
76679;PMS5003;65597;51.520;-0.224;2023-04-24T09:21:00;11;10;
76679;PMS5003;65597;51.520;-0.224;2023-04-24T09:23:20;11;10;
76679;PMS5003;65597;51.520;-0.224;2023-04-24T09:25:45;9;9;
76679;PMS5003;65597;51.520;-0.224;2023-04-24T09:28:12;10;10;
76679;PMS5003;65597;51.520;-0.224;2023-04-24T09:30:36;12;11;
76679;PMS5003;65597;51.520;-0.224;2023-04-24T09:35:26;15;12;
76679;PMS5003;65597;51.520;-0.224;2023-04-24T09:37:52;10;10;
76679;PMS5003;65597;51.520;-0.224;2023-04-24T09:40:18;10;9;
76679;PMS5003;65597;51.520;-0.224;2023-04-24T09:42:43;10;10;
76679;PMS5003;65597;51.520;-0.224;2023-04-24T09:45:08;11;9;
76679;PMS5003;65597;51.520;-0.224;2023-04-24T09:47:35;11;11;
76679;PMS5003;65597;51.520;-0.224;2023-04-24T09:50:01;11;9;
76679;PMS5003;65597;51.520;-0.224;2023-04-24T09:52:25;10;10;
76679;PMS5003;65597;51.520;-0.224;2023-04-24T09:54:52;15;12;
76679;PMS5003;65597;51.520;-0.224;2023-04-24T09:57:16;14;9;
76679;PMS5003;65597;51.520;-0.224;2023-04-24T09:59:41;11;11;
76679;PMS5003;65597;51.520;-0.224;2023-04-24T10:04:32;9;8;
76679;PMS5003;65597;51.520;-0.224;2023-04-24T10:06:58;8;8;
76679;PMS5003;65597;51.520;-0.224;2023-04-24T10:09:24;9;8;
76679;PMS5003;65597;51.520;-0.224;2023-04-24T10:11:49;9;8;
76679;PMS5003;65597;51.520;-0.224;2023-04-24T10:14:15;9;9;
76679;PMS5003;65597;51.520;-0.224;2023-04-24T10:16:41;9;9;
76679;PMS5003;65597;51.520;-0.224;2023-04-24T10:19:05;9;8;
76679;PMS5003;65597;51.520;-0.224;2023-04-24T10:21:31;10;8;
76679;PMS5003;65597;51.520;-0.224;2023-04-24T10:23:56;13;11;
76679;PMS5003;65597;51.520;-0.224;2023-04-24T10:26:22;12;9;
76679;PMS5003;65597;51.520;-0.224;2023-04-24T10:28:47;9;8;
76679;PMS5003;65597;51.520;-0.224;2023-04-24T10:31:13;8;8;
76679;PMS5003;65597;51.520;-0.224;2023-04-24T10:33:38;7;6;
76679;PMS5003;65597;51.520;-0.224;2023-04-24T10:36:03;10;9;
76679;PMS5003;65597;51.520;-0.224;2023-04-24T10:38:29;10;9;
76679;PMS5003;65597;51.520;-0.224;2023-04-24T10:40:57;11;10;
76679;PMS5003;65597;51.520;-0.224;2023-04-24T10:43:20;8;8;
76679;PMS5003;65597;51.520;-0.224;2023-04-24T10:48:16;10;7;
76679;PMS5003;65597;51.520;-0.224;2023-04-24T10:50:42;8;8;
76679;PMS5003;65597;51.520;-0.224;2023-04-24T10:53:06;7;6;
76679;PMS5003;65597;51.520;-0.224;2023-04-24T10:58:01;6;6;
76679;PMS5003;65597;51.520;-0.224;2023-04-24T11:00:19;6;6;
76679;PMS5003;65597;51.520;-0.224;2023-04-24T11:02:45;11;9;
76679;PMS5003;65597;51.520;-0.224;2023-04-24T11:05:09;5;5;
76679;PMS5003;65597;51.520;-0.224;2023-04-24T11:10:05;6;6;
76679;PMS5003;65597;51.520;-0.224;2023-04-24T11:12:25;7;6;
76679;PMS5003;65597;51.520;-0.224;2023-04-24T11:15:00;8;7;
76679;PMS5003;65597;51.520;-0.224;2023-04-24T11:19:41;5;5;
76679;PMS5003;65597;51.520;-0.224;2023-04-24T11:22:13;7;6;
76679;PMS5003;65597;51.520;-0.224;2023-04-24T11:24:33;8;7;
76679;PMS5003;65597;51.520;-0.224;2023-04-24T11:26:58;10;9;
76679;PMS5003;65597;51.520;-0.224;2023-04-24T11:29:38;9;8;
76679;PMS5003;65597;51.520;-0.224;2023-04-24T11:31:48;9;8;
76679;PMS5003;65597;51.520;-0.224;2023-04-24T11:34:14;9;8;
76679;PMS5003;65597;51.520;-0.224;2023-04-24T11:36:39;7;7;
76679;PMS5003;65597;51.520;-0.224;2023-04-24T11:39:04;10;9;
76679;PMS5003;65597;51.520;-0.224;2023-04-24T11:41:30;9;8;
76679;PMS5003;65597;51.520;-0.224;2023-04-24T11:43:55;13;13;
76679;PMS5003;65597;51.520;-0.224;2023-04-24T11:46:21;12;12;
76679;PMS5003;65597;51.520;-0.224;2023-04-24T11:48:46;11;11;
76679;PMS5003;65597;51.520;-0.224;2023-04-24T11:51:11;10;8;
76679;PMS5003;65597;51.520;-0.224;2023-04-24T11:53:37;9;8;
76679;PMS5003;65597;51.520;-0.224;2023-04-24T11:56:03;10;10;
76679;PMS5003;65597;51.520;-0.224;2023-04-24T11:58:28;9;9;
76679;PMS5003;65597;51.520;-0.224;2023-04-24T12:00:55;12;11;
76679;PMS5003;65597;51.520;-0.224;2023-04-24T12:03:19;9;8;
76679;PMS5003;65597;51.520;-0.224;2023-04-24T12:05:44;10;10;
76679;PMS5003;65597;51.520;-0.224;2023-04-24T12:08:09;8;8;
76679;PMS5003;65597;51.520;-0.224;2023-04-24T12:10:35;11;8;
76679;PMS5003;65597;51.520;-0.224;2023-04-24T12:13:00;8;8;
76679;PMS5003;65597;51.520;-0.224;2023-04-24T12:15:26;9;7;
76679;PMS5003;65597;51.520;-0.224;2023-04-24T12:17:53;8;8;
76679;PMS5003;65597;51.520;-0.224;2023-04-24T12:20:16;6;6;
76679;PMS5003;65597;51.520;-0.224;2023-04-24T12:22:43;6;6;
76679;PMS5003;65597;51.520;-0.224;2023-04-24T12:25:09;9;9;
76679;PMS5003;65597;51.520;-0.224;2023-04-24T12:27:33;10;8;
76679;PMS5003;65597;51.520;-0.224;2023-04-24T12:29:59;8;8;
76679;PMS5003;65597;51.520;-0.224;2023-04-24T12:32:23;10;8;
76679;PMS5003;65597;51.520;-0.224;2023-04-24T12:34:49;7;7;
76679;PMS5003;65597;51.520;-0.224;2023-04-24T12:37:14;14;10;
76679;PMS5003;65597;51.520;-0.224;2023-04-24T12:39:42;9;8;
76679;PMS5003;65597;51.520;-0.224;2023-04-24T12:42:06;15;15;
76679;PMS5003;65597;51.520;-0.224;2023-04-24T12:44:30;10;10;
76679;PMS5003;65597;51.520;-0.224;2023-04-24T12:46:55;8;8;
76679;PMS5003;65597;51.520;-0.224;2023-04-24T12:49:21;8;7;
76679;PMS5003;65597;51.520;-0.224;2023-04-24T12:51:46;9;8;
76679;PMS5003;65597;51.520;-0.224;2023-04-24T12:54:14;8;8;
76679;PMS5003;65597;51.520;-0.224;2023-04-24T12:56:37;8;8;
76679;PMS5003;65597;51.520;-0.224;2023-04-24T12:59:03;6;6;
76679;PMS5003;65597;51.520;-0.224;2023-04-24T13:01:28;9;7;
76679;PMS5003;65597;51.520;-0.224;2023-04-24T13:03:53;7;7;
76679;PMS5003;65597;51.520;-0.224;2023-04-24T13:06:19;9;8;
76679;PMS5003;65597;51.520;-0.224;2023-04-24T13:08:44;8;8;
76679;PMS5003;65597;51.520;-0.224;2023-04-24T13:11:10;9;9;
76679;PMS5003;65597;51.520;-0.224;2023-04-24T13:13:35;10;10;
76679;PMS5003;65597;51.520;-0.224;2023-04-24T13:16:01;12;11;
76679;PMS5003;65597;51.520;-0.224;2023-04-24T13:18:28;9;8;
76679;PMS5003;65597;51.520;-0.224;2023-04-24T13:20:51;10;9;
76679;PMS5003;65597;51.520;-0.224;2023-04-24T13:23:17;9;8;
76679;PMS5003;65597;51.520;-0.224;2023-04-24T13:25:42;8;8;
76679;PMS5003;65597;51.520;-0.224;2023-04-24T13:28:08;9;9;
76679;PMS5003;65597;51.520;-0.224;2023-04-24T13:30:33;7;7;
76679;PMS5003;65597;51.520;-0.224;2023-04-24T13:32:58;8;7;
76679;PMS5003;65597;51.520;-0.224;2023-04-24T13:35:24;9;9;
76679;PMS5003;65597;51.520;-0.224;2023-04-24T13:37:49;7;7;
76679;PMS5003;65597;51.520;-0.224;2023-04-24T13:40:14;10;9;
76679;PMS5003;65597;51.520;-0.224;2023-04-24T13:42:41;9;9;
76679;PMS5003;65597;51.520;-0.224;2023-04-24T13:45:05;8;8;
76679;PMS5003;65597;51.520;-0.224;2023-04-24T13:47:30;10;9;
76679;PMS5003;65597;51.520;-0.224;2023-04-24T13:49:56;9;9;
76679;PMS5003;65597;51.520;-0.224;2023-04-24T13:52:21;6;6;
76679;PMS5003;65597;51.520;-0.224;2023-04-24T13:54:50;9;9;
76679;PMS5003;65597;51.520;-0.224;2023-04-24T13:57:13;11;10;
76679;PMS5003;65597;51.520;-0.224;2023-04-24T13:59:37;8;8;
76679;PMS5003;65597;51.520;-0.224;2023-04-24T14:02:08;9;8;
76679;PMS5003;65597;51.520;-0.224;2023-04-24T14:04:28;8;8;
76679;PMS5003;65597;51.520;-0.224;2023-04-24T14:06:53;8;7;
76679;PMS5003;65597;51.520;-0.224;2023-04-24T14:09:18;8;8;
76679;PMS5003;65597;51.520;-0.224;2023-04-24T14:11:44;10;10;
76679;PMS5003;65597;51.520;-0.224;2023-04-24T14:14:10;7;7;
76679;PMS5003;65597;51.520;-0.224;2023-04-24T14:16:35;8;8;
76679;PMS5003;65597;51.520;-0.224;2023-04-24T14:19:01;5;5;
76679;PMS5003;65597;51.520;-0.224;2023-04-24T14:21:25;7;7;
76679;PMS5003;65597;51.520;-0.224;2023-04-24T14:23:51;10;9;
76679;PMS5003;65597;51.520;-0.224;2023-04-24T14:26:16;7;7;
76679;PMS5003;65597;51.520;-0.224;2023-04-24T14:28:41;7;6;
76679;PMS5003;65597;51.520;-0.224;2023-04-24T14:31:07;7;6;
76679;PMS5003;65597;51.520;-0.224;2023-04-24T14:33:32;6;6;
76679;PMS5003;65597;51.520;-0.224;2023-04-24T14:35:58;7;6;
76679;PMS5003;65597;51.520;-0.224;2023-04-24T14:38:23;9;8;
76679;PMS5003;65597;51.520;-0.224;2023-04-24T14:40:49;8;8;
76679;PMS5003;65597;51.520;-0.224;2023-04-24T14:43:16;6;6;
76679;PMS5003;65597;51.520;-0.224;2023-04-24T14:45:39;7;6;
76679;PMS5003;65597;51.520;-0.224;2023-04-24T14:48:05;6;6;
76679;PMS5003;65597;51.520;-0.224;2023-04-24T14:50:30;7;7;
76679;PMS5003;65597;51.520;-0.224;2023-04-24T14:52:55;7;5;
76679;PMS5003;65597;51.520;-0.224;2023-04-24T14:55:20;5;5;
76679;PMS5003;65597;51.520;-0.224;2023-04-24T14:57:51;8;7;
76679;PMS5003;65597;51.520;-0.224;2023-04-24T15:00:12;8;7;
76679;PMS5003;65597;51.520;-0.224;2023-04-24T15:02:36;8;7;
76679;PMS5003;65597;51.520;-0.224;2023-04-24T15:05:02;6;6;
76679;PMS5003;65597;51.520;-0.224;2023-04-24T15:07:27;7;7;
76679;PMS5003;65597;51.520;-0.224;2023-04-24T15:09:52;5;5;
76679;PMS5003;65597;51.520;-0.224;2023-04-24T15:12:18;4;3;
76679;PMS5003;65597;51.520;-0.224;2023-04-24T15:14:43;6;5;
76679;PMS5003;65597;51.520;-0.224;2023-04-24T15:17:09;7;5;
76679;PMS5003;65597;51.520;-0.224;2023-04-24T15:19:35;6;5;
76679;PMS5003;65597;51.520;-0.224;2023-04-24T15:21:59;4;4;
76679;PMS5003;65597;51.520;-0.224;2023-04-24T15:24:25;11;9;
76679;PMS5003;65597;51.520;-0.224;2023-04-24T15:26:50;9;8;
76679;PMS5003;65597;51.520;-0.224;2023-04-24T15:29:16;8;8;
76679;PMS5003;65597;51.520;-0.224;2023-04-24T15:31:41;9;9;
76679;PMS5003;65597;51.520;-0.224;2023-04-24T15:34:07;9;8;
76679;PMS5003;65597;51.520;-0.224;2023-04-24T15:36:32;10;10;
76679;PMS5003;65597;51.520;-0.224;2023-04-24T15:38:58;9;8;
76679;PMS5003;65597;51.520;-0.224;2023-04-24T15:41:23;9;9;
76679;PMS5003;65597;51.520;-0.224;2023-04-24T15:43:50;9;8;
76679;PMS5003;65597;51.520;-0.224;2023-04-24T15:46:19;10;8;
76679;PMS5003;65597;51.520;-0.224;2023-04-24T15:48:41;7;7;
76679;PMS5003;65597;51.520;-0.224;2023-04-24T15:51:06;7;7;
76679;PMS5003;65597;51.520;-0.224;2023-04-24T15:53:31;7;7;
76679;PMS5003;65597;51.520;-0.224;2023-04-24T15:55:58;9;8;
76679;PMS5003;65597;51.520;-0.224;2023-04-24T15:58:22;7;7;
76679;PMS5003;65597;51.520;-0.224;2023-04-24T16:00:48;8;7;
76679;PMS5003;65597;51.520;-0.224;2023-04-24T16:03:13;9;7;
76679;PMS5003;65597;51.520;-0.224;2023-04-24T16:05:38;9;9;
76679;PMS5003;65597;51.520;-0.224;2023-04-24T16:08:05;10;10;
76679;PMS5003;65597;51.520;-0.224;2023-04-24T16:10:29;7;6;
76679;PMS5003;65597;51.520;-0.224;2023-04-24T16:12:55;7;7;
76679;PMS5003;65597;51.520;-0.224;2023-04-24T16:15:20;8;7;
76679;PMS5003;65597;51.520;-0.224;2023-04-24T16:17:46;9;7;